sensor_id;sensor_type;location;lat;lon;timestamp;P1;durP1;ratioP1;P2;durP2;ratioP2
70369;SDS011;57790;51.356;-2.906;2022-09-09T00:00:05;4.67;;;1.00;;
70369;SDS011;57790;51.356;-2.906;2022-09-09T00:03:12;8.95;;;0.90;;
70369;SDS011;57790;51.356;-2.906;2022-09-09T00:06:24;7.57;;;0.90;;
70369;SDS011;57790;51.356;-2.906;2022-09-09T00:09:39;5.88;;;0.90;;
70369;SDS011;57790;51.356;-2.906;2022-09-09T00:25:23;9.45;;;1.50;;
70369;SDS011;57790;51.356;-2.906;2022-09-09T00:28:30;5.95;;;1.17;;
70369;SDS011;57790;51.356;-2.906;2022-09-09T00:31:34;8.17;;;1.50;;
70369;SDS011;57790;51.356;-2.906;2022-09-09T00:34:37;8.65;;;1.58;;
70369;SDS011;57790;51.356;-2.906;2022-09-09T00:37:48;9.82;;;2.17;;
70369;SDS011;57790;51.356;-2.906;2022-09-09T00:40:52;8.68;;;1.92;;
70369;SDS011;57790;51.356;-2.906;2022-09-09T00:44:03;8.27;;;1.67;;
70369;SDS011;57790;51.356;-2.906;2022-09-09T00:57:19;10.75;;;2.00;;
70369;SDS011;57790;51.356;-2.906;2022-09-09T01:00:40;6.25;;;1.48;;
70369;SDS011;57790;51.356;-2.906;2022-09-09T01:06:55;8.48;;;1.60;;
70369;SDS011;57790;51.356;-2.906;2022-09-09T01:10:17;7.43;;;1.70;;
70369;SDS011;57790;51.356;-2.906;2022-09-09T01:13:27;7.15;;;1.98;;
70369;SDS011;57790;51.356;-2.906;2022-09-09T01:16:30;9.25;;;2.10;;
70369;SDS011;57790;51.356;-2.906;2022-09-09T01:19:39;9.55;;;1.95;;
70369;SDS011;57790;51.356;-2.906;2022-09-09T01:26:30;9.00;;;2.10;;
70369;SDS011;57790;51.356;-2.906;2022-09-09T01:29:35;7.28;;;1.90;;
70369;SDS011;57790;51.356;-2.906;2022-09-09T01:39:00;7.23;;;2.00;;
70369;SDS011;57790;51.356;-2.906;2022-09-09T01:42:01;8.27;;;2.03;;
70369;SDS011;57790;51.356;-2.906;2022-09-09T01:45:05;9.82;;;2.10;;
70369;SDS011;57790;51.356;-2.906;2022-09-09T01:48:06;8.63;;;2.20;;
70369;SDS011;57790;51.356;-2.906;2022-09-09T01:51:07;7.90;;;2.30;;
70369;SDS011;57790;51.356;-2.906;2022-09-09T01:54:10;6.88;;;2.08;;
70369;SDS011;57790;51.356;-2.906;2022-09-09T01:57:24;7.63;;;1.73;;
70369;SDS011;57790;51.356;-2.906;2022-09-09T02:00:33;8.63;;;2.10;;
70369;SDS011;57790;51.356;-2.906;2022-09-09T02:03:41;9.03;;;2.13;;
70369;SDS011;57790;51.356;-2.906;2022-09-09T02:06:47;6.38;;;1.95;;
70369;SDS011;57790;51.356;-2.906;2022-09-09T02:09:52;8.48;;;2.53;;
70369;SDS011;57790;51.356;-2.906;2022-09-09T02:13:12;8.10;;;2.03;;
70369;SDS011;57790;51.356;-2.906;2022-09-09T02:19:17;11.07;;;2.20;;
70369;SDS011;57790;51.356;-2.906;2022-09-09T02:22:23;6.47;;;1.92;;
70369;SDS011;57790;51.356;-2.906;2022-09-09T02:25:28;10.40;;;2.20;;
70369;SDS011;57790;51.356;-2.906;2022-09-09T02:28:32;6.63;;;1.88;;
70369;SDS011;57790;51.356;-2.906;2022-09-09T02:31:34;6.75;;;1.95;;
70369;SDS011;57790;51.356;-2.906;2022-09-09T02:34:38;6.68;;;1.70;;
70369;SDS011;57790;51.356;-2.906;2022-09-09T02:37:44;9.60;;;2.10;;
70369;SDS011;57790;51.356;-2.906;2022-09-09T02:40:49;5.90;;;1.50;;
70369;SDS011;57790;51.356;-2.906;2022-09-09T02:43:50;6.78;;;1.60;;
70369;SDS011;57790;51.356;-2.906;2022-09-09T02:50:26;8.25;;;1.75;;
70369;SDS011;57790;51.356;-2.906;2022-09-09T02:53:41;8.37;;;1.50;;
70369;SDS011;57790;51.356;-2.906;2022-09-09T02:56:49;5.82;;;1.80;;
70369;SDS011;57790;51.356;-2.906;2022-09-09T02:59:55;11.00;;;2.17;;
70369;SDS011;57790;51.356;-2.906;2022-09-09T03:02:58;6.95;;;1.60;;
70369;SDS011;57790;51.356;-2.906;2022-09-09T03:05:58;6.53;;;1.70;;
70369;SDS011;57790;51.356;-2.906;2022-09-09T03:08:59;7.83;;;1.50;;
70369;SDS011;57790;51.356;-2.906;2022-09-09T03:12:01;7.60;;;1.60;;
70369;SDS011;57790;51.356;-2.906;2022-09-09T03:15:04;8.50;;;1.88;;
70369;SDS011;57790;51.356;-2.906;2022-09-09T03:18:06;8.13;;;1.88;;
70369;SDS011;57790;51.356;-2.906;2022-09-09T03:21:07;8.07;;;1.98;;
70369;SDS011;57790;51.356;-2.906;2022-09-09T03:24:07;9.40;;;1.80;;
70369;SDS011;57790;51.356;-2.906;2022-09-09T03:27:07;8.77;;;1.93;;
70369;SDS011;57790;51.356;-2.906;2022-09-09T03:30:08;9.63;;;2.03;;
70369;SDS011;57790;51.356;-2.906;2022-09-09T03:33:09;7.03;;;2.20;;
70369;SDS011;57790;51.356;-2.906;2022-09-09T03:36:09;6.97;;;1.87;;
70369;SDS011;57790;51.356;-2.906;2022-09-09T03:39:10;5.13;;;1.33;;
70369;SDS011;57790;51.356;-2.906;2022-09-09T03:42:13;5.57;;;1.20;;
70369;SDS011;57790;51.356;-2.906;2022-09-09T03:45:14;5.82;;;1.40;;
70369;SDS011;57790;51.356;-2.906;2022-09-09T03:48:15;5.83;;;1.10;;
70369;SDS011;57790;51.356;-2.906;2022-09-09T03:51:17;5.35;;;1.10;;
70369;SDS011;57790;51.356;-2.906;2022-09-09T03:54:18;9.02;;;1.05;;
70369;SDS011;57790;51.356;-2.906;2022-09-09T03:57:19;5.30;;;1.10;;
70369;SDS011;57790;51.356;-2.906;2022-09-09T04:00:20;4.07;;;1.15;;
70369;SDS011;57790;51.356;-2.906;2022-09-09T04:03:21;5.27;;;1.20;;
70369;SDS011;57790;51.356;-2.906;2022-09-09T04:06:24;5.35;;;0.95;;
70369;SDS011;57790;51.356;-2.906;2022-09-09T04:09:25;8.23;;;1.40;;
70369;SDS011;57790;51.356;-2.906;2022-09-09T04:12:26;5.23;;;0.90;;
70369;SDS011;57790;51.356;-2.906;2022-09-09T04:15:26;7.50;;;1.00;;
70369;SDS011;57790;51.356;-2.906;2022-09-09T04:18:28;6.72;;;1.05;;
70369;SDS011;57790;51.356;-2.906;2022-09-09T04:21:28;7.53;;;1.10;;
70369;SDS011;57790;51.356;-2.906;2022-09-09T04:24:29;5.20;;;1.20;;
70369;SDS011;57790;51.356;-2.906;2022-09-09T04:27:29;5.37;;;0.90;;
70369;SDS011;57790;51.356;-2.906;2022-09-09T04:30:29;4.50;;;1.00;;
70369;SDS011;57790;51.356;-2.906;2022-09-09T04:33:30;7.50;;;1.10;;
70369;SDS011;57790;51.356;-2.906;2022-09-09T04:36:32;7.40;;;1.38;;
70369;SDS011;57790;51.356;-2.906;2022-09-09T04:39:33;4.57;;;0.90;;
70369;SDS011;57790;51.356;-2.906;2022-09-09T04:42:36;7.77;;;1.50;;
70369;SDS011;57790;51.356;-2.906;2022-09-09T04:45:37;6.75;;;0.90;;
70369;SDS011;57790;51.356;-2.906;2022-09-09T04:48:37;5.43;;;1.00;;
70369;SDS011;57790;51.356;-2.906;2022-09-09T04:51:37;5.83;;;1.10;;
70369;SDS011;57790;51.356;-2.906;2022-09-09T04:54:38;7.30;;;1.00;;
70369;SDS011;57790;51.356;-2.906;2022-09-09T04:57:40;5.38;;;1.10;;
70369;SDS011;57790;51.356;-2.906;2022-09-09T05:00:41;10.23;;;1.30;;
70369;SDS011;57790;51.356;-2.906;2022-09-09T05:03:42;4.80;;;1.00;;
70369;SDS011;57790;51.356;-2.906;2022-09-09T05:06:45;5.18;;;1.02;;
70369;SDS011;57790;51.356;-2.906;2022-09-09T05:09:45;6.97;;;1.97;;
70369;SDS011;57790;51.356;-2.906;2022-09-09T05:12:54;7.53;;;1.05;;
70369;SDS011;57790;51.356;-2.906;2022-09-09T05:15:54;10.20;;;1.20;;
70369;SDS011;57790;51.356;-2.906;2022-09-09T05:18:55;7.37;;;1.10;;
70369;SDS011;57790;51.356;-2.906;2022-09-09T05:21:55;4.72;;;1.15;;
70369;SDS011;57790;51.356;-2.906;2022-09-09T05:24:56;6.77;;;1.07;;
70369;SDS011;57790;51.356;-2.906;2022-09-09T05:27:58;8.50;;;1.20;;
70369;SDS011;57790;51.356;-2.906;2022-09-09T05:31:00;6.13;;;1.38;;
70369;SDS011;57790;51.356;-2.906;2022-09-09T05:34:04;6.63;;;1.20;;
70369;SDS011;57790;51.356;-2.906;2022-09-09T05:37:05;5.63;;;1.07;;
70369;SDS011;57790;51.356;-2.906;2022-09-09T05:40:06;6.72;;;1.25;;
70369;SDS011;57790;51.356;-2.906;2022-09-09T05:43:08;8.25;;;1.42;;
70369;SDS011;57790;51.356;-2.906;2022-09-09T05:46:09;8.23;;;1.63;;
70369;SDS011;57790;51.356;-2.906;2022-09-09T05:49:11;8.40;;;1.55;;
70369;SDS011;57790;51.356;-2.906;2022-09-09T05:52:12;10.77;;;1.40;;
70369;SDS011;57790;51.356;-2.906;2022-09-09T05:55:12;9.40;;;1.27;;
70369;SDS011;57790;51.356;-2.906;2022-09-09T05:58:13;9.10;;;1.40;;
70369;SDS011;57790;51.356;-2.906;2022-09-09T06:01:24;7.07;;;1.02;;
70369;SDS011;57790;51.356;-2.906;2022-09-09T06:04:30;5.55;;;1.30;;
70369;SDS011;57790;51.356;-2.906;2022-09-09T06:07:30;6.40;;;1.00;;
70369;SDS011;57790;51.356;-2.906;2022-09-09T06:10:31;7.00;;;1.50;;
70369;SDS011;57790;51.356;-2.906;2022-09-09T06:13:31;6.93;;;1.10;;
70369;SDS011;57790;51.356;-2.906;2022-09-09T06:16:32;5.93;;;1.10;;
70369;SDS011;57790;51.356;-2.906;2022-09-09T06:19:33;9.98;;;1.23;;
70369;SDS011;57790;51.356;-2.906;2022-09-09T06:22:33;7.80;;;1.20;;
70369;SDS011;57790;51.356;-2.906;2022-09-09T06:25:34;6.20;;;1.10;;
70369;SDS011;57790;51.356;-2.906;2022-09-09T06:28:34;7.30;;;1.63;;
70369;SDS011;57790;51.356;-2.906;2022-09-09T06:31:36;7.70;;;1.55;;
70369;SDS011;57790;51.356;-2.906;2022-09-09T06:34:37;9.93;;;2.10;;
70369;SDS011;57790;51.356;-2.906;2022-09-09T06:37:38;7.13;;;1.70;;
70369;SDS011;57790;51.356;-2.906;2022-09-09T06:40:38;10.52;;;2.25;;
70369;SDS011;57790;51.356;-2.906;2022-09-09T06:43:39;7.80;;;1.73;;
70369;SDS011;57790;51.356;-2.906;2022-09-09T06:46:40;10.45;;;2.13;;
70369;SDS011;57790;51.356;-2.906;2022-09-09T06:49:40;9.87;;;1.97;;
70369;SDS011;57790;51.356;-2.906;2022-09-09T06:52:45;8.45;;;2.05;;
70369;SDS011;57790;51.356;-2.906;2022-09-09T06:55:47;10.02;;;1.50;;
70369;SDS011;57790;51.356;-2.906;2022-09-09T06:58:48;6.07;;;1.60;;
70369;SDS011;57790;51.356;-2.906;2022-09-09T07:01:53;7.22;;;1.60;;
70369;SDS011;57790;51.356;-2.906;2022-09-09T07:04:54;7.18;;;1.40;;
70369;SDS011;57790;51.356;-2.906;2022-09-09T07:07:55;7.33;;;1.30;;
70369;SDS011;57790;51.356;-2.906;2022-09-09T07:11:01;6.30;;;1.50;;
70369;SDS011;57790;51.356;-2.906;2022-09-09T07:14:02;8.20;;;1.38;;
70369;SDS011;57790;51.356;-2.906;2022-09-09T07:17:03;6.10;;;1.20;;
70369;SDS011;57790;51.356;-2.906;2022-09-09T07:20:03;5.30;;;1.10;;
70369;SDS011;57790;51.356;-2.906;2022-09-09T07:23:04;6.13;;;0.93;;
70369;SDS011;57790;51.356;-2.906;2022-09-09T07:26:12;5.03;;;1.00;;
70369;SDS011;57790;51.356;-2.906;2022-09-09T07:29:14;6.25;;;1.10;;
70369;SDS011;57790;51.356;-2.906;2022-09-09T07:32:14;5.53;;;1.00;;
70369;SDS011;57790;51.356;-2.906;2022-09-09T07:35:15;5.20;;;1.10;;
70369;SDS011;57790;51.356;-2.906;2022-09-09T07:38:15;5.00;;;1.10;;
70369;SDS011;57790;51.356;-2.906;2022-09-09T07:41:21;4.68;;;0.90;;
70369;SDS011;57790;51.356;-2.906;2022-09-09T07:44:25;4.53;;;1.00;;
70369;SDS011;57790;51.356;-2.906;2022-09-09T07:47:26;2.20;;;0.70;;
70369;SDS011;57790;51.356;-2.906;2022-09-09T07:50:27;6.55;;;0.90;;
70369;SDS011;57790;51.356;-2.906;2022-09-09T07:53:28;3.33;;;0.80;;
70369;SDS011;57790;51.356;-2.906;2022-09-09T07:56:29;3.03;;;0.80;;
70369;SDS011;57790;51.356;-2.906;2022-09-09T07:59:30;6.43;;;0.90;;
70369;SDS011;57790;51.356;-2.906;2022-09-09T08:02:30;4.50;;;0.93;;
70369;SDS011;57790;51.356;-2.906;2022-09-09T08:05:31;4.63;;;0.80;;
70369;SDS011;57790;51.356;-2.906;2022-09-09T08:08:31;3.47;;;0.77;;
70369;SDS011;57790;51.356;-2.906;2022-09-09T08:11:32;4.47;;;0.70;;
70369;SDS011;57790;51.356;-2.906;2022-09-09T08:14:33;3.28;;;0.75;;
70369;SDS011;57790;51.356;-2.906;2022-09-09T08:17:33;6.10;;;0.93;;
70369;SDS011;57790;51.356;-2.906;2022-09-09T08:20:35;4.07;;;0.80;;
70369;SDS011;57790;51.356;-2.906;2022-09-09T08:23:36;6.37;;;1.00;;
70369;SDS011;57790;51.356;-2.906;2022-09-09T08:26:41;4.85;;;0.93;;
70369;SDS011;57790;51.356;-2.906;2022-09-09T08:29:43;3.70;;;0.70;;
70369;SDS011;57790;51.356;-2.906;2022-09-09T08:32:44;3.47;;;0.80;;
70369;SDS011;57790;51.356;-2.906;2022-09-09T08:35:51;3.15;;;0.63;;
70369;SDS011;57790;51.356;-2.906;2022-09-09T08:38:53;5.00;;;0.80;;
70369;SDS011;57790;51.356;-2.906;2022-09-09T08:51:19;9.43;;;1.00;;
70369;SDS011;57790;51.356;-2.906;2022-09-09T08:54:20;5.77;;;0.90;;
70369;SDS011;57790;51.356;-2.906;2022-09-09T08:57:25;4.35;;;0.90;;
70369;SDS011;57790;51.356;-2.906;2022-09-09T09:00:31;5.13;;;0.77;;
70369;SDS011;57790;51.356;-2.906;2022-09-09T09:13:01;5.97;;;1.35;;
70369;SDS011;57790;51.356;-2.906;2022-09-09T09:16:06;3.53;;;0.90;;
70369;SDS011;57790;51.356;-2.906;2022-09-09T09:19:19;6.38;;;0.70;;
70369;SDS011;57790;51.356;-2.906;2022-09-09T09:22:34;3.33;;;0.80;;
70369;SDS011;57790;51.356;-2.906;2022-09-09T09:25:38;3.03;;;0.80;;
70369;SDS011;57790;51.356;-2.906;2022-09-09T09:28:41;6.50;;;1.00;;
70369;SDS011;57790;51.356;-2.906;2022-09-09T09:31:43;4.20;;;0.83;;
70369;SDS011;57790;51.356;-2.906;2022-09-09T09:34:57;3.88;;;0.80;;
70369;SDS011;57790;51.356;-2.906;2022-09-09T09:37:58;4.03;;;0.90;;
70369;SDS011;57790;51.356;-2.906;2022-09-09T09:41:00;4.70;;;1.20;;
70369;SDS011;57790;51.356;-2.906;2022-09-09T09:44:02;5.93;;;0.90;;
70369;SDS011;57790;51.356;-2.906;2022-09-09T09:47:08;6.25;;;0.70;;
70369;SDS011;57790;51.356;-2.906;2022-09-09T09:50:16;4.78;;;0.98;;
70369;SDS011;57790;51.356;-2.906;2022-09-09T09:53:20;5.70;;;1.00;;
70369;SDS011;57790;51.356;-2.906;2022-09-09T09:56:28;3.28;;;0.70;;
70369;SDS011;57790;51.356;-2.906;2022-09-09T10:02:37;3.53;;;0.80;;
70369;SDS011;57790;51.356;-2.906;2022-09-09T10:05:39;5.75;;;0.90;;
70369;SDS011;57790;51.356;-2.906;2022-09-09T10:08:46;6.15;;;1.50;;
70369;SDS011;57790;51.356;-2.906;2022-09-09T10:11:50;5.23;;;1.20;;
70369;SDS011;57790;51.356;-2.906;2022-09-09T10:15:39;6.45;;;1.33;;
70369;SDS011;57790;51.356;-2.906;2022-09-09T10:22:47;5.82;;;1.70;;
70369;SDS011;57790;51.356;-2.906;2022-09-09T10:26:04;6.97;;;1.80;;
70369;SDS011;57790;51.356;-2.906;2022-09-09T10:38:46;6.57;;;1.50;;
70369;SDS011;57790;51.356;-2.906;2022-09-09T10:42:04;4.70;;;1.50;;
70369;SDS011;57790;51.356;-2.906;2022-09-09T10:52:01;6.80;;;1.50;;
70369;SDS011;57790;51.356;-2.906;2022-09-09T10:55:10;8.05;;;1.90;;
70369;SDS011;57790;51.356;-2.906;2022-09-09T10:58:16;6.60;;;1.77;;
70369;SDS011;57790;51.356;-2.906;2022-09-09T11:01:24;8.48;;;1.90;;
70369;SDS011;57790;51.356;-2.906;2022-09-09T11:04:40;6.82;;;1.80;;
70369;SDS011;57790;51.356;-2.906;2022-09-09T11:07:49;7.20;;;1.47;;
70369;SDS011;57790;51.356;-2.906;2022-09-09T11:14:50;7.10;;;1.60;;
70369;SDS011;57790;51.356;-2.906;2022-09-09T11:17:40;9.13;;;1.30;;
70369;SDS011;57790;51.356;-2.906;2022-09-09T11:20:55;6.97;;;1.60;;
70369;SDS011;57790;51.356;-2.906;2022-09-09T11:24:10;7.43;;;1.57;;
70369;SDS011;57790;51.356;-2.906;2022-09-09T11:30:30;9.63;;;1.52;;
70369;SDS011;57790;51.356;-2.906;2022-09-09T11:33:56;5.95;;;1.48;;
70369;SDS011;57790;51.356;-2.906;2022-09-09T11:40:59;7.60;;;1.30;;
70369;SDS011;57790;51.356;-2.906;2022-09-09T11:44:09;5.15;;;1.33;;
70369;SDS011;57790;51.356;-2.906;2022-09-09T11:47:28;6.53;;;1.40;;
70369;SDS011;57790;51.356;-2.906;2022-09-09T11:50:33;8.70;;;1.60;;
70369;SDS011;57790;51.356;-2.906;2022-09-09T11:53:47;6.20;;;1.45;;
70369;SDS011;57790;51.356;-2.906;2022-09-09T11:56:49;7.47;;;1.47;;
70369;SDS011;57790;51.356;-2.906;2022-09-09T11:59:50;8.20;;;1.67;;
70369;SDS011;57790;51.356;-2.906;2022-09-09T12:02:54;6.97;;;1.30;;
70369;SDS011;57790;51.356;-2.906;2022-09-09T12:05:58;10.90;;;1.80;;
70369;SDS011;57790;51.356;-2.906;2022-09-09T12:09:12;9.23;;;1.40;;
70369;SDS011;57790;51.356;-2.906;2022-09-09T12:12:32;8.87;;;1.37;;
70369;SDS011;57790;51.356;-2.906;2022-09-09T12:15:35;7.65;;;1.45;;
70369;SDS011;57790;51.356;-2.906;2022-09-09T12:18:47;6.65;;;1.33;;
70369;SDS011;57790;51.356;-2.906;2022-09-09T12:21:51;10.50;;;1.67;;
70369;SDS011;57790;51.356;-2.906;2022-09-09T12:25:16;7.03;;;1.40;;
70369;SDS011;57790;51.356;-2.906;2022-09-09T12:31:25;6.43;;;1.80;;
70369;SDS011;57790;51.356;-2.906;2022-09-09T12:40:57;8.93;;;1.80;;
70369;SDS011;57790;51.356;-2.906;2022-09-09T12:44:04;7.10;;;1.37;;
70369;SDS011;57790;51.356;-2.906;2022-09-09T12:47:06;8.93;;;1.45;;
70369;SDS011;57790;51.356;-2.906;2022-09-09T12:50:15;7.10;;;1.30;;
70369;SDS011;57790;51.356;-2.906;2022-09-09T12:53:22;8.23;;;1.42;;
70369;SDS011;57790;51.356;-2.906;2022-09-09T12:56:30;5.50;;;1.60;;
70369;SDS011;57790;51.356;-2.906;2022-09-09T12:59:36;6.70;;;1.80;;
70369;SDS011;57790;51.356;-2.906;2022-09-09T13:02:52;7.72;;;1.50;;
70369;SDS011;57790;51.356;-2.906;2022-09-09T13:05:57;6.67;;;1.37;;
70369;SDS011;57790;51.356;-2.906;2022-09-09T13:09:02;6.93;;;1.60;;
70369;SDS011;57790;51.356;-2.906;2022-09-09T13:12:03;8.43;;;1.60;;
70369;SDS011;57790;51.356;-2.906;2022-09-09T13:15:09;6.80;;;1.40;;
70369;SDS011;57790;51.356;-2.906;2022-09-09T13:18:23;4.57;;;1.27;;
70369;SDS011;57790;51.356;-2.906;2022-09-09T13:21:36;4.53;;;1.30;;
70369;SDS011;57790;51.356;-2.906;2022-09-09T13:24:38;8.02;;;2.03;;
70369;SDS011;57790;51.356;-2.906;2022-09-09T13:27:40;8.10;;;1.70;;
70369;SDS011;57790;51.356;-2.906;2022-09-09T13:30:42;5.85;;;1.50;;
70369;SDS011;57790;51.356;-2.906;2022-09-09T13:33:44;5.57;;;1.27;;
70369;SDS011;57790;51.356;-2.906;2022-09-09T13:36:46;4.13;;;1.10;;
70369;SDS011;57790;51.356;-2.906;2022-09-09T13:39:52;4.45;;;1.00;;
70369;SDS011;57790;51.356;-2.906;2022-09-09T13:42:55;3.33;;;1.02;;
70369;SDS011;57790;51.356;-2.906;2022-09-09T13:45:58;3.95;;;1.02;;
70369;SDS011;57790;51.356;-2.906;2022-09-09T13:49:02;4.97;;;1.00;;
70369;SDS011;57790;51.356;-2.906;2022-09-09T13:52:11;6.55;;;0.95;;
70369;SDS011;57790;51.356;-2.906;2022-09-09T13:55:13;4.82;;;1.00;;
70369;SDS011;57790;51.356;-2.906;2022-09-09T13:58:15;5.43;;;1.10;;
70369;SDS011;57790;51.356;-2.906;2022-09-09T14:01:18;4.93;;;1.23;;
70369;SDS011;57790;51.356;-2.906;2022-09-09T14:04:19;6.13;;;1.30;;
70369;SDS011;57790;51.356;-2.906;2022-09-09T14:07:22;5.27;;;1.30;;
70369;SDS011;57790;51.356;-2.906;2022-09-09T14:10:23;5.68;;;1.50;;
70369;SDS011;57790;51.356;-2.906;2022-09-09T14:13:23;6.10;;;1.20;;
70369;SDS011;57790;51.356;-2.906;2022-09-09T14:16:24;5.05;;;1.10;;
70369;SDS011;57790;51.356;-2.906;2022-09-09T14:19:26;5.13;;;1.03;;
70369;SDS011;57790;51.356;-2.906;2022-09-09T14:22:27;5.93;;;1.13;;
70369;SDS011;57790;51.356;-2.906;2022-09-09T14:25:28;6.27;;;1.10;;
70369;SDS011;57790;51.356;-2.906;2022-09-09T14:28:28;5.63;;;1.37;;
70369;SDS011;57790;51.356;-2.906;2022-09-09T14:31:29;4.90;;;1.00;;
70369;SDS011;57790;51.356;-2.906;2022-09-09T14:34:30;6.03;;;1.40;;
70369;SDS011;57790;51.356;-2.906;2022-09-09T14:37:32;6.32;;;1.27;;
70369;SDS011;57790;51.356;-2.906;2022-09-09T14:40:33;6.27;;;1.20;;
70369;SDS011;57790;51.356;-2.906;2022-09-09T14:43:37;6.00;;;1.30;;
70369;SDS011;57790;51.356;-2.906;2022-09-09T14:46:38;12.07;;;2.47;;
70369;SDS011;57790;51.356;-2.906;2022-09-09T14:49:38;8.50;;;1.50;;
70369;SDS011;57790;51.356;-2.906;2022-09-09T14:52:39;7.60;;;1.40;;
70369;SDS011;57790;51.356;-2.906;2022-09-09T14:55:39;6.63;;;1.40;;
70369;SDS011;57790;51.356;-2.906;2022-09-09T14:58:39;8.32;;;1.10;;
70369;SDS011;57790;51.356;-2.906;2022-09-09T15:01:40;7.20;;;1.20;;
70369;SDS011;57790;51.356;-2.906;2022-09-09T15:04:41;7.67;;;1.60;;
70369;SDS011;57790;51.356;-2.906;2022-09-09T15:07:41;9.18;;;1.85;;
70369;SDS011;57790;51.356;-2.906;2022-09-09T15:10:42;8.37;;;1.47;;
70369;SDS011;57790;51.356;-2.906;2022-09-09T15:13:44;7.85;;;1.50;;
70369;SDS011;57790;51.356;-2.906;2022-09-09T15:16:45;10.37;;;1.73;;
70369;SDS011;57790;51.356;-2.906;2022-09-09T15:19:45;8.70;;;1.45;;
70369;SDS011;57790;51.356;-2.906;2022-09-09T15:22:46;6.23;;;1.20;;
70369;SDS011;57790;51.356;-2.906;2022-09-09T15:25:50;9.77;;;1.20;;
70369;SDS011;57790;51.356;-2.906;2022-09-09T15:28:53;8.02;;;1.30;;
70369;SDS011;57790;51.356;-2.906;2022-09-09T15:31:54;8.10;;;1.67;;
70369;SDS011;57790;51.356;-2.906;2022-09-09T15:34:55;6.67;;;1.50;;
70369;SDS011;57790;51.356;-2.906;2022-09-09T15:37:55;7.40;;;1.33;;
70369;SDS011;57790;51.356;-2.906;2022-09-09T15:40:57;5.57;;;1.27;;
70369;SDS011;57790;51.356;-2.906;2022-09-09T15:44:04;4.40;;;1.00;;
70369;SDS011;57790;51.356;-2.906;2022-09-09T15:47:05;6.70;;;1.23;;
70369;SDS011;57790;51.356;-2.906;2022-09-09T15:50:06;5.87;;;1.10;;
70369;SDS011;57790;51.356;-2.906;2022-09-09T15:53:07;7.22;;;1.38;;
70369;SDS011;57790;51.356;-2.906;2022-09-09T15:56:07;9.93;;;1.17;;
70369;SDS011;57790;51.356;-2.906;2022-09-09T15:59:08;7.63;;;1.35;;
70369;SDS011;57790;51.356;-2.906;2022-09-09T16:02:09;6.43;;;1.13;;
70369;SDS011;57790;51.356;-2.906;2022-09-09T16:05:09;7.57;;;1.67;;
70369;SDS011;57790;51.356;-2.906;2022-09-09T16:08:10;9.18;;;1.40;;
70369;SDS011;57790;51.356;-2.906;2022-09-09T16:11:15;6.97;;;1.40;;
70369;SDS011;57790;51.356;-2.906;2022-09-09T16:14:19;6.63;;;1.02;;
70369;SDS011;57790;51.356;-2.906;2022-09-09T16:17:20;6.77;;;0.90;;
70369;SDS011;57790;51.356;-2.906;2022-09-09T16:20:21;6.40;;;0.98;;
70369;SDS011;57790;51.356;-2.906;2022-09-09T16:23:21;7.38;;;1.10;;
70369;SDS011;57790;51.356;-2.906;2022-09-09T16:26:22;6.03;;;1.00;;
70369;SDS011;57790;51.356;-2.906;2022-09-09T16:29:23;7.13;;;1.10;;
70369;SDS011;57790;51.356;-2.906;2022-09-09T16:32:27;5.80;;;1.00;;
70369;SDS011;57790;51.356;-2.906;2022-09-09T16:35:28;5.28;;;1.20;;
70369;SDS011;57790;51.356;-2.906;2022-09-09T16:38:30;5.18;;;1.00;;
70369;SDS011;57790;51.356;-2.906;2022-09-09T16:41:31;5.87;;;0.90;;
70369;SDS011;57790;51.356;-2.906;2022-09-09T16:44:32;7.93;;;1.30;;
70369;SDS011;57790;51.356;-2.906;2022-09-09T16:47:33;7.63;;;1.30;;
70369;SDS011;57790;51.356;-2.906;2022-09-09T16:50:34;6.25;;;1.25;;
70369;SDS011;57790;51.356;-2.906;2022-09-09T16:53:34;8.27;;;1.40;;
70369;SDS011;57790;51.356;-2.906;2022-09-09T16:56:36;5.00;;;1.53;;
70369;SDS011;57790;51.356;-2.906;2022-09-09T16:59:41;5.77;;;1.37;;
70369;SDS011;57790;51.356;-2.906;2022-09-09T17:02:42;5.03;;;1.10;;
70369;SDS011;57790;51.356;-2.906;2022-09-09T17:05:43;5.85;;;1.30;;
70369;SDS011;57790;51.356;-2.906;2022-09-09T17:08:44;6.87;;;1.30;;
70369;SDS011;57790;51.356;-2.906;2022-09-09T17:11:45;6.63;;;1.40;;
70369;SDS011;57790;51.356;-2.906;2022-09-09T17:14:47;7.53;;;1.30;;
70369;SDS011;57790;51.356;-2.906;2022-09-09T17:17:47;8.45;;;1.40;;
70369;SDS011;57790;51.356;-2.906;2022-09-09T17:20:49;5.30;;;1.30;;
70369;SDS011;57790;51.356;-2.906;2022-09-09T17:23:50;7.97;;;1.50;;
70369;SDS011;57790;51.356;-2.906;2022-09-09T17:26:51;8.30;;;1.43;;
70369;SDS011;57790;51.356;-2.906;2022-09-09T17:29:52;6.65;;;1.30;;
70369;SDS011;57790;51.356;-2.906;2022-09-09T17:32:52;7.78;;;1.60;;
70369;SDS011;57790;51.356;-2.906;2022-09-09T17:35:53;4.83;;;1.20;;
70369;SDS011;57790;51.356;-2.906;2022-09-09T17:38:54;9.57;;;1.80;;
70369;SDS011;57790;51.356;-2.906;2022-09-09T17:41:56;8.02;;;1.55;;
70369;SDS011;57790;51.356;-2.906;2022-09-09T17:44:57;7.43;;;1.40;;
70369;SDS011;57790;51.356;-2.906;2022-09-09T17:47:57;5.80;;;1.23;;
70369;SDS011;57790;51.356;-2.906;2022-09-09T17:50:58;7.00;;;1.33;;
70369;SDS011;57790;51.356;-2.906;2022-09-09T17:54:00;6.55;;;1.33;;
70369;SDS011;57790;51.356;-2.906;2022-09-09T17:57:02;5.73;;;1.17;;
70369;SDS011;57790;51.356;-2.906;2022-09-09T18:00:05;6.53;;;1.17;;
70369;SDS011;57790;51.356;-2.906;2022-09-09T18:03:06;4.60;;;1.10;;
70369;SDS011;57790;51.356;-2.906;2022-09-09T18:06:09;6.03;;;1.33;;
70369;SDS011;57790;51.356;-2.906;2022-09-09T18:09:16;5.13;;;1.42;;
70369;SDS011;57790;51.356;-2.906;2022-09-09T18:12:18;5.85;;;1.25;;
70369;SDS011;57790;51.356;-2.906;2022-09-09T18:15:19;5.03;;;1.20;;
70369;SDS011;57790;51.356;-2.906;2022-09-09T18:18:20;6.32;;;1.23;;
70369;SDS011;57790;51.356;-2.906;2022-09-09T18:21:21;5.38;;;1.08;;
70369;SDS011;57790;51.356;-2.906;2022-09-09T18:24:22;4.43;;;1.10;;
70369;SDS011;57790;51.356;-2.906;2022-09-09T18:27:24;5.75;;;1.10;;
70369;SDS011;57790;51.356;-2.906;2022-09-09T18:30:24;5.67;;;1.20;;
70369;SDS011;57790;51.356;-2.906;2022-09-09T18:33:25;6.60;;;1.00;;
70369;SDS011;57790;51.356;-2.906;2022-09-09T18:36:26;6.63;;;1.20;;
70369;SDS011;57790;51.356;-2.906;2022-09-09T18:39:38;7.75;;;1.25;;
70369;SDS011;57790;51.356;-2.906;2022-09-09T18:42:38;4.40;;;1.20;;
70369;SDS011;57790;51.356;-2.906;2022-09-09T18:45:39;8.17;;;1.60;;
70369;SDS011;57790;51.356;-2.906;2022-09-09T18:48:39;6.88;;;1.35;;
70369;SDS011;57790;51.356;-2.906;2022-09-09T18:51:43;5.33;;;1.30;;
70369;SDS011;57790;51.356;-2.906;2022-09-09T18:54:45;8.32;;;1.67;;
70369;SDS011;57790;51.356;-2.906;2022-09-09T18:57:47;7.32;;;1.30;;
70369;SDS011;57790;51.356;-2.906;2022-09-09T19:00:47;7.67;;;1.60;;
70369;SDS011;57790;51.356;-2.906;2022-09-09T19:03:48;7.50;;;1.50;;
70369;SDS011;57790;51.356;-2.906;2022-09-09T19:06:49;6.45;;;1.50;;
70369;SDS011;57790;51.356;-2.906;2022-09-09T19:09:56;8.57;;;1.70;;
70369;SDS011;57790;51.356;-2.906;2022-09-09T19:12:56;7.47;;;1.80;;
70369;SDS011;57790;51.356;-2.906;2022-09-09T19:16:04;5.23;;;1.50;;
70369;SDS011;57790;51.356;-2.906;2022-09-09T19:19:16;7.85;;;1.75;;
70369;SDS011;57790;51.356;-2.906;2022-09-09T19:22:20;6.47;;;1.60;;
70369;SDS011;57790;51.356;-2.906;2022-09-09T19:25:20;4.67;;;1.07;;
70369;SDS011;57790;51.356;-2.906;2022-09-09T19:28:21;5.35;;;1.20;;
70369;SDS011;57790;51.356;-2.906;2022-09-09T19:31:21;5.37;;;1.70;;
70369;SDS011;57790;51.356;-2.906;2022-09-09T19:34:22;9.20;;;1.83;;
70369;SDS011;57790;51.356;-2.906;2022-09-09T19:37:23;5.77;;;1.60;;
70369;SDS011;57790;51.356;-2.906;2022-09-09T19:40:24;5.43;;;1.60;;
70369;SDS011;57790;51.356;-2.906;2022-09-09T19:43:24;6.53;;;1.90;;
70369;SDS011;57790;51.356;-2.906;2022-09-09T19:46:25;7.13;;;2.00;;
70369;SDS011;57790;51.356;-2.906;2022-09-09T19:49:25;8.10;;;1.83;;
70369;SDS011;57790;51.356;-2.906;2022-09-09T19:52:26;8.43;;;1.87;;